Sy New Dimension — ZGAC4 — position and weather

sailwx.info

Track history (hours):
 
Tides and Currents Weather Stations Pressure Air Temp Water Temp Dewpoint Dewpoint Depression Visibility Wind Speed Wind Dir Waves Ship Positions

Sy New Dimension

Last reported at 2018-Jul-17 16:11 UTC. Time now 2018-Jul-21 09:43 UTC.
Position N 38°09' E 015°34'.

Length 24 m.

Type: Pleasure craft. MMSI: 319509000.

Date/timePositionNaut miles runAvg speedWind from/ knotsBaromVisibWave heightAir tempDewpointWater temp
2018-Jul-17 16:11N 38°09' E 015°34'10 9.0
2018-Jul-17 15:02N 38°19' E 015°40'1 9.1
2018-Jul-17 14:57N 38°20' E 015°39'3 6.4
2018-Jul-17 14:30N 38°21' E 015°36'4 8.2
2018-Jul-17 14:00N 38°21' E 015°31'4 7.8
2018-Jul-17 13:29N 38°20' E 015°26'4 8.0
2018-Jul-17 12:57N 38°22' E 015°21'4 8.0
2018-Jul-17 12:30N 38°24' E 015°17'7 7.9
2018-Jul-17 11:40N 38°28' E 015°10'46 2.1
2018-Jul-16 14:12N 38°15' E 014°14'17 8.7
2018-Jul-16 12:16N 38°12' E 013°53'3 8.8
2018-Jul-16 11:58N 38°12' E 013°50'4 8.8
2018-Jul-16 11:30N 38°12' E 013°44'4 8.8
2018-Jul-16 11:00N 38°11' E 013°39'6 8.9
2018-Jul-16 10:22N 38°10' E 013°32'3 8.8
2018-Jul-16 10:01N 38°10' E 013°28'4 8.1
2018-Jul-16 09:30N 38°09' E 013°23'0 0.6
2018-Jul-16 08:52N 38°09' E 013°22'0 0.0
2018-Jul-16 08:28N 38°09' E 013°22'1 2.6
2018-Jul-16 08:01N 38°07' E 013°22'0 0.4
2018-Jul-16 07:31N 38°07' E 013°22'0 0.0
2018-Jul-16 06:55N 38°07' E 013°22'0 0.0
2018-Jul-16 06:07N 38°07' E 013°22'0 0.0
2018-Jul-16 05:58N 38°07' E 013°22'0 0.0
2018-Jul-16 05:31N 38°07' E 013°22'0 0.0
2018-Jul-16 04:55N 38°07' E 013°22'0 0.0
2018-Jul-16 04:31N 38°07' E 013°22'0 0.0
2018-Jul-16 03:55N 38°07' E 013°22'0 0.0
2018-Jul-16 03:28N 38°07' E 013°22'0 0.0
2018-Jul-16 02:49N 38°07' E 013°22'0 0.0
2018-Jul-16 01:49N 38°07' E 013°22'0 0.0
2018-Jul-16 01:25N 38°07' E 013°22'0 0.0
2018-Jul-16 01:01N 38°07' E 013°22'0 0.0
2018-Jul-16 00:31N 38°07' E 013°22'0 0.0
2018-Jul-15 23:55N 38°07' E 013°22'0 0.0
2018-Jul-15 23:31N 38°07' E 013°22'0 0.0
2018-Jul-15 22:46N 38°07' E 013°22'0 0.0
2018-Jul-15 22:28N 38°07' E 013°22'0 0.0
2018-Jul-15 21:58N 38°07' E 013°22'0 0.0
2018-Jul-15 21:28N 38°07' E 013°22'0 0.0
2018-Jul-15 21:01N 38°07' E 013°22'0 0.0
2018-Jul-15 20:31N 38°07' E 013°22'0 0.0
2018-Jul-15 20:01N 38°07' E 013°22'0 0.0
2018-Jul-15 19:31N 38°07' E 013°22'0 0.0
2018-Jul-15 18:58N 38°07' E 013°22'0 0.0
2018-Jul-15 18:25N 38°07' E 013°22'0 0.0
2018-Jul-15 18:01N 38°07' E 013°22'0 0.0
2018-Jul-15 17:31N 38°07' E 013°22'0 0.0
2018-Jul-15 16:55N 38°07' E 013°22'0 0.0
2018-Jul-15 16:31N 38°07' E 013°22'0 0.0
2018-Jul-15 16:01N 38°07' E 013°22'0 0.0
2018-Jul-15 15:31N 38°07' E 013°22'0 0.0
2018-Jul-15 15:01N 38°07' E 013°22'0 0.0
2018-Jul-15 14:25N 38°07' E 013°22'0 0.0
2018-Jul-15 13:55N 38°07' E 013°22'0 0.0
2018-Jul-15 13:31N 38°07' E 013°22'0 0.0
2018-Jul-15 12:55N 38°07' E 013°22'0 0.0
2018-Jul-15 12:31N 38°07' E 013°22'0 0.0
2018-Jul-15 11:52N 38°07' E 013°22'0 0.0
2018-Jul-15 11:31N 38°07' E 013°22'0 0.0
2018-Jul-15 10:46N 38°07' E 013°22'0 0.0
2018-Jul-15 10:16N 38°07' E 013°22'0 0.0
2018-Jul-15 09:58N 38°07' E 013°22'0 0.0
2018-Jul-15 09:22N 38°07' E 013°22'0 0.0
2018-Jul-15 09:01N 38°07' E 013°22'0 0.0
2018-Jul-15 08:28N 38°07' E 013°22'0 0.0
2018-Jul-15 07:58N 38°07' E 013°22'0 0.0
2018-Jul-15 06:49N 38°07' E 013°22'0 0.0
2018-Jul-15 06:07N 38°07' E 013°22'0 0.0
2018-Jul-15 05:43N 38°07' E 013°22'0 0.0
2018-Jul-15 05:13N 38°07' E 013°22'0 0.0
2018-Jul-15 04:55N 38°07' E 013°22'0 0.0
2018-Jul-15 04:28N 38°07' E 013°22'0 0.0
2018-Jul-15 03:55N 38°07' E 013°22'0 0.0
2018-Jul-15 03:31N 38°07' E 013°22'0 0.0
2018-Jul-15 03:01N 38°07' E 013°22'0 0.0
2018-Jul-15 02:31N 38°07' E 013°22'0 0.0
2018-Jul-15 01:58N 38°07' E 013°22'0 0.0
2018-Jul-15 01:28N 38°07' E 013°22'0 0.0
2018-Jul-15 00:58N 38°07' E 013°22'0 0.0
2018-Jul-15 00:28N 38°07' E 013°22'0 0.0
2018-Jul-14 23:40N 38°07' E 013°22'0 0.0
2018-Jul-14 23:28N 38°07' E 013°22'0 0.0
2018-Jul-14 23:01N 38°07' E 013°22'0 0.0
2018-Jul-14 22:19N 38°07' E 013°22'0 0.0
2018-Jul-14 21:58N 38°07' E 013°22'0 0.0
2018-Jul-14 21:25N 38°07' E 013°22'0 0.0
2018-Jul-14 21:01N 38°07' E 013°22'0 0.0
2018-Jul-14 20:25N 38°07' E 013°22'0 0.0
2018-Jul-14 20:01N 38°07' E 013°22'0 0.0
2018-Jul-14 19:25N 38°07' E 013°22'0 0.0
2018-Jul-14 18:55N 38°07' E 013°22'0 0.0
2018-Jul-14 18:31N 38°07' E 013°22'0 0.0
2018-Jul-14 18:01N 38°07' E 013°22'0 0.0
2018-Jul-14 17:31N 38°07' E 013°22'0 0.0
2018-Jul-14 16:58N 38°07' E 013°22'0 0.0
2018-Jul-14 16:31N 38°07' E 013°22'0 0.0
2018-Jul-14 15:58N 38°07' E 013°22'0 0.0
2018-Jul-14 15:28N 38°07' E 013°22'0 0.0
2018-Jul-14 14:52N 38°07' E 013°22'0 0.0
2018-Jul-14 14:19N 38°07' E 013°22'0 0.0
2018-Jul-14 13:28N 38°07' E 013°22'0 0.0
2018-Jul-14 12:58N 38°07' E 013°22'0 0.0
2018-Jul-14 12:22N 38°07' E 013°22'0 0.0
2018-Jul-14 11:58N 38°07' E 013°22'0 0.0
2018-Jul-14 11:22N 38°07' E 013°22'0 0.0
2018-Jul-14 10:58N 38°07' E 013°22'0 0.0
2018-Jul-14 10:28N 38°07' E 013°22'0 0.0
2018-Jul-14 10:01N 38°07' E 013°22'0 0.0
2018-Jul-14 09:25N 38°07' E 013°22'0 0.0
2018-Jul-14 08:58N 38°07' E 013°22'0 0.0
2018-Jul-14 08:31N 38°07' E 013°22'0 0.0
2018-Jul-14 08:01N 38°07' E 013°22'0 0.0
2018-Jul-14 07:31N 38°07' E 013°22'0 0.0
2018-Jul-14 07:01N 38°07' E 013°22'0 0.0
2018-Jul-14 06:28N 38°07' E 013°22'0 0.0
2018-Jul-14 06:01N 38°07' E 013°22'0 0.0
2018-Jul-14 05:31N 38°07' E 013°22'0 0.0
2018-Jul-14 05:01N 38°07' E 013°22'0 0.0
2018-Jul-14 04:31N 38°07' E 013°22'0 0.0
2018-Jul-14 04:01N 38°07' E 013°22'0 0.0
2018-Jul-14 03:31N 38°07' E 013°22'0 0.0
2018-Jul-14 03:01N 38°07' E 013°22'0 0.0
2018-Jul-14 02:31N 38°07' E 013°22'0 0.0
2018-Jul-14 02:01N 38°07' E 013°22'0 0.0
2018-Jul-14 01:31N 38°07' E 013°22'0 0.0
2018-Jul-14 01:01N 38°07' E 013°22'0 0.0
2018-Jul-14 00:31N 38°07' E 013°22'0 0.0
2018-Jul-14 00:01N 38°07' E 013°22'0 0.0
2018-Jul-13 23:31N 38°07' E 013°22'0 0.0
2018-Jul-13 23:01N 38°07' E 013°22'0 0.0
2018-Jul-13 22:19N 38°07' E 013°22'0 0.0
2018-Jul-13 22:01N 38°07' E 013°22'0 0.0
2018-Jul-13 21:31N 38°07' E 013°22'0 0.0
2018-Jul-13 21:01N 38°07' E 013°22'0 0.0
2018-Jul-13 20:31N 38°07' E 013°22'0 0.0
2018-Jul-13 20:01N 38°07' E 013°22'0 0.0
2018-Jul-13 19:31N 38°07' E 013°22'0 0.0
2018-Jul-13 18:19N 38°07' E 013°22'0 0.0
2018-Jul-13 17:58N 38°07' E 013°22'0 0.0
2018-Jul-13 17:31N 38°07' E 013°22'0 0.0
2018-Jul-13 16:55N 38°07' E 013°22'0 0.0
2018-Jul-13 16:31N 38°07' E 013°22'0 0.0
2018-Jul-13 15:40N 38°07' E 013°22'0 0.0
2018-Jul-13 15:28N 38°07' E 013°22'0 0.0
2018-Jul-13 14:58N 38°07' E 013°22'0 0.0
2018-Jul-13 13:58N 38°07' E 013°22'0 0.0
2018-Jul-13 13:28N 38°07' E 013°22'0 0.0
2018-Jul-13 12:58N 38°07' E 013°22'0 0.0
2018-Jul-13 12:28N 38°07' E 013°22'0 0.0
2018-Jul-13 11:58N 38°07' E 013°22'0 0.0
2018-Jul-13 11:28N 38°07' E 013°22'0 0.0
2018-Jul-13 10:52N 38°07' E 013°22'0 0.0
2018-Jul-13 10:28N 38°07' E 013°22'0 0.0
2018-Jul-13 09:58N 38°07' E 013°22'0 0.0
2018-Jul-13 09:28N 38°07' E 013°22'0 0.0
2018-Jul-13 08:58N 38°07' E 013°22'0 0.0
2018-Jul-13 08:31N 38°07' E 013°22'0 0.0
2018-Jul-13 08:01N 38°07' E 013°22'0 0.0
2018-Jul-13 07:31N 38°07' E 013°22'0 0.0
2018-Jul-13 07:01N 38°07' E 013°22'0 0.0
2018-Jul-13 06:31N 38°07' E 013°22'0 0.0
2018-Jul-13 06:01N 38°07' E 013°22'0 0.0
2018-Jul-13 05:31N 38°07' E 013°22'0 0.0
2018-Jul-13 04:58N 38°07' E 013°22'0 0.0
2018-Jul-13 04:31N 38°07' E 013°22'0 0.0
2018-Jul-13 03:58N 38°07' E 013°22'0 0.0
2018-Jul-13 03:31N 38°07' E 013°22'0 0.0
2018-Jul-13 03:01N 38°07' E 013°22'0 0.0
2018-Jul-13 02:28N 38°07' E 013°22'0 0.0
2018-Jul-13 01:58N 38°07' E 013°22'0 0.0
2018-Jul-13 01:31N 38°07' E 013°22'0 0.0
2018-Jul-13 01:01N 38°07' E 013°22'0 0.0
2018-Jul-13 00:31N 38°07' E 013°22'0 0.0
2018-Jul-13 00:01N 38°07' E 013°22'0 0.0
2018-Jul-12 23:31N 38°07' E 013°22'0 0.0
2018-Jul-12 23:01N 38°07' E 013°22'0 0.0
2018-Jul-12 22:31N 38°07' E 013°22'0 0.0
2018-Jul-12 22:01N 38°07' E 013°22'0 0.0
2018-Jul-12 21:31N 38°07' E 013°22'0 0.0
2018-Jul-12 21:01N 38°07' E 013°22'0 0.0
2018-Jul-12 20:31N 38°07' E 013°22'0 0.0
2018-Jul-12 20:01N 38°07' E 013°22'0 0.0
2018-Jul-12 18:19N 38°07' E 013°22'0 0.0
2018-Jul-12 18:01N 38°07' E 013°22'0 0.0
2018-Jul-12 17:31N 38°07' E 013°22'0 0.0
2018-Jul-12 17:01N 38°07' E 013°22'0 0.0
2018-Jul-12 16:31N 38°07' E 013°22'0 0.0
2018-Jul-12 16:01N 38°07' E 013°22'0 0.0
2018-Jul-12 15:31N 38°07' E 013°22'0 0.0
2018-Jul-12 14:58N 38°07' E 013°22'0 0.0
2018-Jul-12 14:31N 38°07' E 013°22'0 0.0
2018-Jul-12 14:01N 38°07' E 013°22'0 0.0
2018-Jul-12 13:31N 38°07' E 013°22'0 0.0
2018-Jul-12 13:01N 38°07' E 013°22'0 0.0
2018-Jul-12 12:28N 38°07' E 013°22'0 0.0
2018-Jul-12 11:58N 38°07' E 013°22'0 0.0
2018-Jul-12 11:28N 38°07' E 013°22'0 0.0
2018-Jul-12 10:58N 38°07' E 013°22'0 0.0
2018-Jul-12 10:31N 38°07' E 013°22'0 0.0
2018-Jul-12 10:01N 38°07' E 013°22'0 0.0
2018-Jul-12 09:28N 38°07' E 013°22'0 0.0
2018-Jul-12 08:58N 38°07' E 013°22'0 0.0
2018-Jul-12 08:31N 38°07' E 013°22'0 0.0
2018-Jul-12 08:01N 38°07' E 013°22'0 0.0
2018-Jul-12 07:31N 38°07' E 013°22'0 0.0
2018-Jul-12 06:58N 38°07' E 013°22'0 0.0
2018-Jul-12 06:31N 38°07' E 013°22'0 0.0
2018-Jul-12 06:01N 38°07' E 013°22'0 0.0
2018-Jul-12 05:28N 38°07' E 013°22'0 0.0
2018-Jul-12 05:01N 38°07' E 013°22'0 0.0
2018-Jul-12 04:13N 38°07' E 013°22'0 0.0
2018-Jul-12 04:01N 38°07' E 013°22'0 0.0
2018-Jul-12 03:31N 38°07' E 013°22'0 0.0
2018-Jul-12 03:01N 38°07' E 013°22'0 0.0
2018-Jul-12 02:25N 38°07' E 013°22'0 0.0
2018-Jul-12 02:01N 38°07' E 013°22'0 0.0
2018-Jul-12 01:19N 38°07' E 013°22'0 0.0
2018-Jul-12 01:01N 38°07' E 013°22'0 0.0
2018-Jul-12 00:31N 38°07' E 013°22'0 0.0
2018-Jul-12 00:01N 38°07' E 013°22'0 0.0
2018-Jul-11 23:31N 38°07' E 013°22'0 0.0
2018-Jul-11 22:55N 38°07' E 013°22'0 0.0
2018-Jul-11 22:13N 38°07' E 013°22'0 0.0
2018-Jul-11 22:01N 38°07' E 013°22'0 0.0
2018-Jul-11 21:25N 38°07' E 013°22'0 0.0
2018-Jul-11 20:58N 38°07' E 013°22'0 0.0
2018-Jul-11 20:31N 38°07' E 013°22'0 0.0
2018-Jul-11 18:34N 38°07' E 013°22'0 0.0
2018-Jul-11 18:28N 38°07' E 013°22'0 0.0
2018-Jul-11 17:04N 38°07' E 013°22'0 0.0
2018-Jul-11 16:04N 38°07' E 013°22'0 0.0
2018-Jul-11 15:58N 38°07' E 013°22'0 0.0
2018-Jul-11 15:31N 38°07' E 013°22'0 0.0
2018-Jul-11 14:58N 38°07' E 013°22'0 0.0
2018-Jul-11 14:31N 38°07' E 013°22'0 0.0
2018-Jul-11 13:58N 38°07' E 013°22'0 0.0
2018-Jul-11 13:31N 38°07' E 013°22'0 0.0
2018-Jul-11 13:01N 38°07' E 013°22'0 0.0
2018-Jul-11 12:28N 38°07' E 013°22'0 0.0
2018-Jul-11 12:01N 38°07' E 013°22'0 0.0
2018-Jul-11 11:31N 38°07' E 013°22'0 0.0
2018-Jul-11 11:01N 38°07' E 013°22'0 0.0
2018-Jul-11 10:31N 38°07' E 013°22'0 0.0
2018-Jul-11 09:58N 38°07' E 013°22'0 0.0
2018-Jul-11 09:22N 38°07' E 013°22'0 0.0
2018-Jul-11 09:01N 38°07' E 013°22'0 0.0
2018-Jul-11 08:31N 38°07' E 013°22'0 0.0
2018-Jul-11 07:04N 38°07' E 013°22'0 0.2
2018-Jul-11 07:01N 38°07' E 013°22'0 0.0
2018-Jul-11 06:28N 38°07' E 013°22'0 0.0
2018-Jul-11 06:01N 38°07' E 013°22'0 0.0
2018-Jul-11 05:28N 38°07' E 013°22'0 0.0
2018-Jul-11 04:58N 38°07' E 013°22'0 0.0
2018-Jul-11 04:28N 38°07' E 013°22'0 0.0
2018-Jul-11 03:58N 38°07' E 013°22'0 0.0
2018-Jul-11 03:28N 38°07' E 013°22'0 0.0
2018-Jul-11 02:58N 38°07' E 013°22'0 0.0
2018-Jul-11 02:28N 38°07' E 013°22'0 0.0
2018-Jul-11 01:58N 38°07' E 013°22'0 0.0
2018-Jul-11 01:31N 38°07' E 013°22'0 0.0
2018-Jul-11 00:58N 38°07' E 013°22'0 0.0
2018-Jul-11 00:31N 38°07' E 013°22'0 0.0
2018-Jul-10 23:58N 38°07' E 013°22'0 0.0
2018-Jul-10 23:31N 38°07' E 013°22'0 0.0
2018-Jul-10 23:01N 38°07' E 013°22'0 0.0
2018-Jul-10 22:31N 38°07' E 013°22'0 0.0
2018-Jul-10 21:58N 38°07' E 013°22'0 0.0
2018-Jul-10 20:40N 38°07' E 013°22'0 0.0
2018-Jul-10 20:31N 38°07' E 013°22'0 0.0
2018-Jul-10 17:49N 38°07' E 013°22'0 0.0
2018-Jul-10 17:25N 38°07' E 013°22'0 0.0
2018-Jul-10 17:01N 38°07' E 013°22'0 0.0
2018-Jul-10 16:31N 38°07' E 013°22'0 0.0
2018-Jul-10 16:01N 38°07' E 013°22'0 0.0
2018-Jul-10 15:31N 38°07' E 013°22'0 0.0
2018-Jul-10 15:01N 38°07' E 013°22'0 0.0
2018-Jul-10 14:31N 38°07' E 013°22'0 0.0
2018-Jul-10 13:58N 38°07' E 013°22'0 0.0
2018-Jul-10 13:28N 38°07' E 013°22'0 0.0
2018-Jul-10 12:34N 38°07' E 013°22'0 0.1
2018-Jul-10 12:31N 38°07' E 013°22'0 0.0
2018-Jul-10 12:01N 38°07' E 013°22'0 0.0
2018-Jul-10 11:28N 38°07' E 013°22'0 0.0
2018-Jul-10 11:01N 38°07' E 013°22'0 0.0
2018-Jul-10 10:31N 38°07' E 013°22'0 0.0
2018-Jul-10 10:01N 38°07' E 013°22'0 0.0
2018-Jul-10 09:31N 38°07' E 013°22'0 0.0
2018-Jul-10 09:01N 38°07' E 013°22'0 0.0
2018-Jul-10 08:28N 38°07' E 013°22'0 0.0
2018-Jul-10 08:01N 38°07' E 013°22'0 0.0
2018-Jul-10 07:31N 38°07' E 013°22'0 0.0
2018-Jul-10 07:01N 38°07' E 013°22'0 0.0
2018-Jul-10 06:28N 38°07' E 013°22'0 0.0
2018-Jul-10 05:58N 38°07' E 013°22'0 0.0
2018-Jul-10 05:28N 38°07' E 013°22'0 0.0
2018-Jul-10 05:01N 38°07' E 013°22'0 0.0
2018-Jul-10 04:28N 38°07' E 013°22'0 0.0
2018-Jul-10 04:01N 38°07' E 013°22'0 0.0
2018-Jul-10 03:31N 38°07' E 013°22'0 0.0
2018-Jul-10 03:01N 38°07' E 013°22'0 0.0
2018-Jul-10 02:31N 38°07' E 013°22'0 0.0
2018-Jul-10 02:01N 38°07' E 013°22'0 0.0
2018-Jul-10 01:31N 38°07' E 013°22'0 0.0
2018-Jul-10 01:01N 38°07' E 013°22'0 0.0
2018-Jul-10 00:28N 38°07' E 013°22'0 0.0
2018-Jul-10 00:01N 38°07' E 013°22'0 0.0
2018-Jul-09 23:28N 38°07' E 013°22'0 0.0
2018-Jul-09 23:01N 38°07' E 013°22'0 0.0
2018-Jul-09 22:28N 38°07' E 013°22'0 0.0
2018-Jul-09 21:58N 38°07' E 013°22'0 0.0
2018-Jul-09 21:28N 38°07' E 013°22'0 0.0
2018-Jul-09 20:58N 38°07' E 013°22'0 0.0
2018-Jul-09 20:31N 38°07' E 013°22'0 0.0
2018-Jul-09 20:01N 38°07' E 013°22'0 0.0
2018-Jul-09 19:31N 38°07' E 013°22'0 0.0
2018-Jul-09 19:01N 38°07' E 013°22'0 0.0
2018-Jul-09 18:28N 38°07' E 013°22'0 0.0
2018-Jul-09 17:58N 38°07' E 013°22'0 0.0
2018-Jul-09 17:31N 38°07' E 013°22'0 0.0
2018-Jul-09 16:58N 38°07' E 013°22'0 0.0
2018-Jul-09 16:31N 38°07' E 013°22'0 0.0
2018-Jul-09 15:55N 38°07' E 013°22'0 0.0
2018-Jul-09 15:31N 38°07' E 013°22'0 0.0
2018-Jul-09 15:01N 38°07' E 013°22'0 0.0
2018-Jul-09 14:31N 38°07' E 013°22'0 0.0
2018-Jul-09 14:01N 38°07' E 013°22'0 0.0
2018-Jul-09 13:28N 38°07' E 013°22'0 0.0
2018-Jul-09 13:01N 38°07' E 013°22'0 0.0
2018-Jul-09 12:31N 38°07' E 013°22'0 0.0
2018-Jul-09 11:58N 38°07' E 013°22'0 0.0
2018-Jul-09 11:31N 38°07' E 013°22'0 0.0
2018-Jul-09 10:58N 38°07' E 013°22'0 0.0
2018-Jul-09 10:28N 38°07' E 013°22'0 0.0
2018-Jul-09 10:01N 38°07' E 013°22'0 0.0
2018-Jul-09 09:31N 38°07' E 013°22'0 0.0
2018-Jul-09 09:01N 38°07' E 013°22'0 0.0
2018-Jul-09 08:31N 38°07' E 013°22'0 0.0
2018-Jul-09 08:01N 38°07' E 013°22'0 0.0
2018-Jul-09 07:28N 38°07' E 013°22'0 0.0
2018-Jul-09 07:01N 38°07' E 013°22'0 0.0
2018-Jul-09 06:31N 38°07' E 013°22'0 0.0
2018-Jul-09 05:58N 38°07' E 013°22'0 0.0
2018-Jul-09 05:28N 38°07' E 013°22'0 0.0
2018-Jul-09 04:55N 38°07' E 013°22'0 0.0
2018-Jul-09 04:31N 38°07' E 013°22'0 0.0
2018-Jul-09 03:52N 38°07' E 013°22'0 0.0
2018-Jul-09 03:28N 38°07' E 013°22'0 0.0
2018-Jul-09 02:04N 38°07' E 013°22'0 0.1
2018-Jul-09 02:01N 38°07' E 013°22'0 0.0
2018-Jul-09 01:31N 38°07' E 013°22'0 0.0
2018-Jul-09 00:52N 38°07' E 013°22'0 0.0
2018-Jul-09 00:31N 38°07' E 013°22'0 0.0
2018-Jul-09 00:01N 38°07' E 013°22'0 0.0
2018-Jul-08 23:31N 38°07' E 013°22'0 0.0
2018-Jul-08 22:55N 38°07' E 013°22'0 0.0
2018-Jul-08 22:28N 38°07' E 013°22'0 0.0
2018-Jul-08 21:52N 38°07' E 013°22'0 0.0
2018-Jul-08 21:31N 38°07' E 013°22'0 0.0
2018-Jul-08 21:01N 38°07' E 013°22'0 0.0
2018-Jul-08 20:31N 38°07' E 013°22'0 0.0
2018-Jul-08 20:01N 38°07' E 013°22'0 0.0
2018-Jul-08 19:31N 38°07' E 013°22'0 0.0
2018-Jul-08 18:58N 38°07' E 013°22'0 0.0
2018-Jul-08 18:22N 38°07' E 013°22'0 0.0
2018-Jul-08 17:55N 38°07' E 013°22'0 0.0
2018-Jul-08 17:25N 38°07' E 013°22'0 0.0
2018-Jul-08 17:01N 38°07' E 013°22'0 0.0
2018-Jul-08 16:28N 38°07' E 013°22'0 0.0
2018-Jul-08 16:01N 38°07' E 013°22'0 0.0
2018-Jul-08 15:31N 38°07' E 013°22'0 0.0
2018-Jul-08 15:01N 38°07' E 013°22'0 0.0
2018-Jul-08 14:31N 38°07' E 013°22'0 0.0
2018-Jul-08 13:55N 38°07' E 013°22'0 0.0
2018-Jul-08 13:31N 38°07' E 013°22'0 0.0
2018-Jul-08 13:01N 38°07' E 013°22'0 0.0
2018-Jul-08 12:28N 38°07' E 013°22'0 0.0
2018-Jul-08 12:01N 38°07' E 013°22'0 0.0
2018-Jul-08 11:28N 38°07' E 013°22'0 0.0
2018-Jul-08 11:01N 38°07' E 013°22'0 0.0
2018-Jul-08 10:28N 38°07' E 013°22'0 0.0
2018-Jul-08 09:58N 38°07' E 013°22'0 0.0
2018-Jul-08 09:28N 38°07' E 013°22'0 0.0
2018-Jul-08 08:58N 38°07' E 013°22'0 0.0
2018-Jul-08 08:28N 38°07' E 013°22'0 0.0
2018-Jul-08 08:01N 38°07' E 013°22'0 0.0
2018-Jul-08 07:28N 38°07' E 013°22'0 0.0
2018-Jul-08 07:01N 38°07' E 013°22'0 0.0
2018-Jul-08 06:31N 38°07' E 013°22'0 0.0
2018-Jul-08 05:58N 38°07' E 013°22'0 0.0
2018-Jul-08 05:31N 38°07' E 013°22'0 0.0
2018-Jul-08 04:58N 38°07' E 013°22'0 0.0
2018-Jul-08 04:28N 38°07' E 013°22'0 0.0
2018-Jul-08 03:58N 38°07' E 013°22'0 0.0
2018-Jul-08 03:31N 38°07' E 013°22'0 0.0
2018-Jul-08 02:58N 38°07' E 013°22'0 0.0
2018-Jul-08 02:28N 38°07' E 013°22'0 0.0
2018-Jul-08 02:01N 38°07' E 013°22'0 0.0
2018-Jul-08 01:28N 38°07' E 013°22'0 0.0
2018-Jul-08 00:58N 38°07' E 013°22'0 0.0
2018-Jul-08 00:31N 38°07' E 013°22'0 0.0
2018-Jul-08 00:01N 38°07' E 013°22'0 0.0
2018-Jul-07 23:31N 38°07' E 013°22'0 0.0
2018-Jul-07 22:43N 38°07' E 013°22'0 0.0
2018-Jul-07 22:28N 38°07' E 013°22'0 0.0
2018-Jul-07 21:58N 38°07' E 013°22'0 0.0
2018-Jul-07 21:25N 38°07' E 013°22'0 0.0
2018-Jul-07 20:49N 38°07' E 013°22'0 0.0
2018-Jul-07 20:25N 38°07' E 013°22'0 0.0
2018-Jul-07 19:58N 38°07' E 013°22'0 0.0
2018-Jul-07 19:28N 38°07' E 013°22'0 0.0
2018-Jul-07 19:01N 38°07' E 013°22'0 0.0
2018-Jul-07 17:58N 38°07' E 013°22'0 0.0
2018-Jul-07 17:31N 38°07' E 013°22'0 0.0
2018-Jul-07 17:01N 38°07' E 013°22'0 0.0
2018-Jul-07 16:31N 38°07' E 013°22'  
Track history (hours):
 
Tides and Currents Weather Stations Pressure Air Temp Water Temp Dewpoint Dewpoint Depression Visibility Wind Speed Wind Dir Waves Ship Positions

Sy New Dimension

Last reported at 2018-Jul-17 16:11 UTC. Time now 2018-Jul-21 09:43 UTC.
Position N 38°09' E 015°34'.

Length 24 m.

Type: Pleasure craft. MMSI: 319509000.

Date/timePositionNaut miles runAvg speedWind from/ knotsBaromVisibWave heightAir tempDewpointWater temp
2018-Jul-17 16:11N 38°09' E 015°34'10 9.0
2018-Jul-17 15:02N 38°19' E 015°40'1 9.1
2018-Jul-17 14:57N 38°20' E 015°39'3 6.4
2018-Jul-17 14:30N 38°21' E 015°36'4 8.2
2018-Jul-17 14:00N 38°21' E 015°31'4 7.8
2018-Jul-17 13:29N 38°20' E 015°26'4 8.0
2018-Jul-17 12:57N 38°22' E 015°21'4 8.0
2018-Jul-17 12:30N 38°24' E 015°17'7 7.9
2018-Jul-17 11:40N 38°28' E 015°10'46 2.1
2018-Jul-16 14:12N 38°15' E 014°14'17 8.7
2018-Jul-16 12:16N 38°12' E 013°53'3 8.8
2018-Jul-16 11:58N 38°12' E 013°50'4 8.8
2018-Jul-16 11:30N 38°12' E 013°44'4 8.8
2018-Jul-16 11:00N 38°11' E 013°39'6 8.9
2018-Jul-16 10:22N 38°10' E 013°32'3 8.8
2018-Jul-16 10:01N 38°10' E 013°28'4 8.1
2018-Jul-16 09:30N 38°09' E 013°23'0 0.6
2018-Jul-16 08:52N 38°09' E 013°22'0 0.0
2018-Jul-16 08:28N 38°09' E 013°22'1 2.6
2018-Jul-16 08:01N 38°07' E 013°22'0 0.4
2018-Jul-16 07:31N 38°07' E 013°22'0 0.0
2018-Jul-16 06:55N 38°07' E 013°22'0 0.0
2018-Jul-16 06:07N 38°07' E 013°22'0 0.0
2018-Jul-16 05:58N 38°07' E 013°22'0 0.0
2018-Jul-16 05:31N 38°07' E 013°22'0 0.0
2018-Jul-16 04:55N 38°07' E 013°22'0 0.0
2018-Jul-16 04:31N 38°07' E 013°22'0 0.0
2018-Jul-16 03:55N 38°07' E 013°22'0 0.0
2018-Jul-16 03:28N 38°07' E 013°22'0 0.0
2018-Jul-16 02:49N 38°07' E 013°22'0 0.0
2018-Jul-16 01:49N 38°07' E 013°22'0 0.0
2018-Jul-16 01:25N 38°07' E 013°22'0 0.0
2018-Jul-16 01:01N 38°07' E 013°22'0 0.0
2018-Jul-16 00:31N 38°07' E 013°22'0 0.0
2018-Jul-15 23:55N 38°07' E 013°22'0 0.0
2018-Jul-15 23:31N 38°07' E 013°22'0 0.0
2018-Jul-15 22:46N 38°07' E 013°22'0 0.0
2018-Jul-15 22:28N 38°07' E 013°22'0 0.0
2018-Jul-15 21:58N 38°07' E 013°22'0 0.0
2018-Jul-15 21:28N 38°07' E 013°22'0 0.0
2018-Jul-15 21:01N 38°07' E 013°22'0 0.0
2018-Jul-15 20:31N 38°07' E 013°22'0 0.0
2018-Jul-15 20:01N 38°07' E 013°22'0 0.0
2018-Jul-15 19:31N 38°07' E 013°22'0 0.0
2018-Jul-15 18:58N 38°07' E 013°22'0 0.0
2018-Jul-15 18:25N 38°07' E 013°22'0 0.0
2018-Jul-15 18:01N 38°07' E 013°22'0 0.0
2018-Jul-15 17:31N 38°07' E 013°22'0 0.0
2018-Jul-15 16:55N 38°07' E 013°22'0 0.0
2018-Jul-15 16:31N 38°07' E 013°22'0 0.0
2018-Jul-15 16:01N 38°07' E 013°22'0 0.0
2018-Jul-15 15:31N 38°07' E 013°22'0 0.0
2018-Jul-15 15:01N 38°07' E 013°22'0 0.0
2018-Jul-15 14:25N 38°07' E 013°22'0 0.0
2018-Jul-15 13:55N 38°07' E 013°22'0 0.0
2018-Jul-15 13:31N 38°07' E 013°22'0 0.0
2018-Jul-15 12:55N 38°07' E 013°22'0 0.0
2018-Jul-15 12:31N 38°07' E 013°22'0 0.0
2018-Jul-15 11:52N 38°07' E 013°22'0 0.0
2018-Jul-15 11:31N 38°07' E 013°22'0 0.0
2018-Jul-15 10:46N 38°07' E 013°22'0 0.0
2018-Jul-15 10:16N 38°07' E 013°22'0 0.0
2018-Jul-15 09:58N 38°07' E 013°22'0 0.0
2018-Jul-15 09:22N 38°07' E 013°22'0 0.0
2018-Jul-15 09:01N 38°07' E 013°22'0 0.0
2018-Jul-15 08:28N 38°07' E 013°22'0 0.0
2018-Jul-15 07:58N 38°07' E 013°22'0 0.0
2018-Jul-15 06:49N 38°07' E 013°22'0 0.0
2018-Jul-15 06:07N 38°07' E 013°22'0 0.0
2018-Jul-15 05:43N 38°07' E 013°22'0 0.0
2018-Jul-15 05:13N 38°07' E 013°22'0 0.0
2018-Jul-15 04:55N 38°07' E 013°22'0 0.0
2018-Jul-15 04:28N 38°07' E 013°22'0 0.0
2018-Jul-15 03:55N 38°07' E 013°22'0 0.0
2018-Jul-15 03:31N 38°07' E 013°22'0 0.0
2018-Jul-15 03:01N 38°07' E 013°22'0 0.0
2018-Jul-15 02:31N 38°07' E 013°22'0 0.0
2018-Jul-15 01:58N 38°07' E 013°22'0 0.0
2018-Jul-15 01:28N 38°07' E 013°22'0 0.0
2018-Jul-15 00:58N 38°07' E 013°22'0 0.0
2018-Jul-15 00:28N 38°07' E 013°22'0 0.0
2018-Jul-14 23:40N 38°07' E 013°22'0 0.0
2018-Jul-14 23:28N 38°07' E 013°22'0 0.0
2018-Jul-14 23:01N 38°07' E 013°22'0 0.0
2018-Jul-14 22:19N 38°07' E 013°22'0 0.0
2018-Jul-14 21:58N 38°07' E 013°22'0 0.0
2018-Jul-14 21:25N 38°07' E 013°22'0 0.0
2018-Jul-14 21:01N 38°07' E 013°22'0 0.0
2018-Jul-14 20:25N 38°07' E 013°22'0 0.0
2018-Jul-14 20:01N 38°07' E 013°22'0 0.0
2018-Jul-14 19:25N 38°07' E 013°22'0 0.0
2018-Jul-14 18:55N 38°07' E 013°22'0 0.0
2018-Jul-14 18:31N 38°07' E 013°22'0 0.0
2018-Jul-14 18:01N 38°07' E 013°22'0 0.0
2018-Jul-14 17:31N 38°07' E 013°22'0 0.0
2018-Jul-14 16:58N 38°07' E 013°22'0 0.0
2018-Jul-14 16:31N 38°07' E 013°22'0 0.0
2018-Jul-14 15:58N 38°07' E 013°22'0 0.0
2018-Jul-14 15:28N 38°07' E 013°22'0 0.0
2018-Jul-14 14:52N 38°07' E 013°22'0 0.0
2018-Jul-14 14:19N 38°07' E 013°22'0 0.0
2018-Jul-14 13:28N 38°07' E 013°22'0 0.0
2018-Jul-14 12:58N 38°07' E 013°22'0 0.0
2018-Jul-14 12:22N 38°07' E 013°22'0 0.0
2018-Jul-14 11:58N 38°07' E 013°22'0 0.0
2018-Jul-14 11:22N 38°07' E 013°22'0 0.0
2018-Jul-14 10:58N 38°07' E 013°22'0 0.0
2018-Jul-14 10:28N 38°07' E 013°22'0 0.0
2018-Jul-14 10:01N 38°07' E 013°22'0 0.0
2018-Jul-14 09:25N 38°07' E 013°22'0 0.0
2018-Jul-14 08:58N 38°07' E 013°22'0 0.0
2018-Jul-14 08:31N 38°07' E 013°22'0 0.0
2018-Jul-14 08:01N 38°07' E 013°22'0 0.0
2018-Jul-14 07:31N 38°07' E 013°22'0 0.0
2018-Jul-14 07:01N 38°07' E 013°22'0 0.0
2018-Jul-14 06:28N 38°07' E 013°22'0 0.0
2018-Jul-14 06:01N 38°07' E 013°22'0 0.0
2018-Jul-14 05:31N 38°07' E 013°22'0 0.0
2018-Jul-14 05:01N 38°07' E 013°22'0 0.0
2018-Jul-14 04:31N 38°07' E 013°22'0 0.0
2018-Jul-14 04:01N 38°07' E 013°22'0 0.0
2018-Jul-14 03:31N 38°07' E 013°22'0 0.0
2018-Jul-14 03:01N 38°07' E 013°22'0 0.0
2018-Jul-14 02:31N 38°07' E 013°22'0 0.0
2018-Jul-14 02:01N 38°07' E 013°22'0 0.0
2018-Jul-14 01:31N 38°07' E 013°22'0 0.0
2018-Jul-14 01:01N 38°07' E 013°22'0 0.0
2018-Jul-14 00:31N 38°07' E 013°22'0 0.0
2018-Jul-14 00:01N 38°07' E 013°22'0 0.0
2018-Jul-13 23:31N 38°07' E 013°22'0 0.0
2018-Jul-13 23:01N 38°07' E 013°22'0 0.0
2018-Jul-13 22:19N 38°07' E 013°22'0 0.0
2018-Jul-13 22:01N 38°07' E 013°22'0 0.0
2018-Jul-13 21:31N 38°07' E 013°22'0 0.0
2018-Jul-13 21:01N 38°07' E 013°22'0 0.0
2018-Jul-13 20:31N 38°07' E 013°22'0 0.0
2018-Jul-13 20:01N 38°07' E 013°22'0 0.0
2018-Jul-13 19:31N 38°07' E 013°22'0 0.0
2018-Jul-13 18:19N 38°07' E 013°22'0 0.0
2018-Jul-13 17:58N 38°07' E 013°22'0 0.0
2018-Jul-13 17:31N 38°07' E 013°22'0 0.0
2018-Jul-13 16:55N 38°07' E 013°22'0 0.0
2018-Jul-13 16:31N 38°07' E 013°22'0 0.0
2018-Jul-13 15:40N 38°07' E 013°22'0 0.0
2018-Jul-13 15:28N 38°07' E 013°22'0 0.0
2018-Jul-13 14:58N 38°07' E 013°22'0 0.0
2018-Jul-13 13:58N 38°07' E 013°22'0 0.0
2018-Jul-13 13:28N 38°07' E 013°22'0 0.0
2018-Jul-13 12:58N 38°07' E 013°22'0 0.0
2018-Jul-13 12:28N 38°07' E 013°22'0 0.0
2018-Jul-13 11:58N 38°07' E 013°22'0 0.0
2018-Jul-13 11:28N 38°07' E 013°22'0 0.0
2018-Jul-13 10:52N 38°07' E 013°22'0 0.0
2018-Jul-13 10:28N 38°07' E 013°22'0 0.0
2018-Jul-13 09:58N 38°07' E 013°22'0 0.0
2018-Jul-13 09:28N 38°07' E 013°22'0 0.0
2018-Jul-13 08:58N 38°07' E 013°22'0 0.0
2018-Jul-13 08:31N 38°07' E 013°22'0 0.0
2018-Jul-13 08:01N 38°07' E 013°22'0 0.0
2018-Jul-13 07:31N 38°07' E 013°22'0 0.0
2018-Jul-13 07:01N 38°07' E 013°22'0 0.0
2018-Jul-13 06:31N 38°07' E 013°22'0 0.0
2018-Jul-13 06:01N 38°07' E 013°22'0 0.0
2018-Jul-13 05:31N 38°07' E 013°22'0 0.0
2018-Jul-13 04:58N 38°07' E 013°22'0 0.0
2018-Jul-13 04:31N 38°07' E 013°22'0 0.0
2018-Jul-13 03:58N 38°07' E 013°22'0 0.0
2018-Jul-13 03:31N 38°07' E 013°22'0 0.0
2018-Jul-13 03:01N 38°07' E 013°22'0 0.0
2018-Jul-13 02:28N 38°07' E 013°22'0 0.0
2018-Jul-13 01:58N 38°07' E 013°22'0 0.0
2018-Jul-13 01:31N 38°07' E 013°22'0 0.0
2018-Jul-13 01:01N 38°07' E 013°22'0 0.0
2018-Jul-13 00:31N 38°07' E 013°22'0 0.0
2018-Jul-13 00:01N 38°07' E 013°22'0 0.0
2018-Jul-12 23:31N 38°07' E 013°22'0 0.0
2018-Jul-12 23:01N 38°07' E 013°22'0 0.0
2018-Jul-12 22:31N 38°07' E 013°22'0 0.0
2018-Jul-12 22:01N 38°07' E 013°22'0 0.0
2018-Jul-12 21:31N 38°07' E 013°22'0 0.0
2018-Jul-12 21:01N 38°07' E 013°22'0 0.0
2018-Jul-12 20:31N 38°07' E 013°22'0 0.0
2018-Jul-12 20:01N 38°07' E 013°22'0 0.0
2018-Jul-12 18:19N 38°07' E 013°22'0 0.0
2018-Jul-12 18:01N 38°07' E 013°22'0 0.0
2018-Jul-12 17:31N 38°07' E 013°22'0 0.0
2018-Jul-12 17:01N 38°07' E 013°22'0 0.0
2018-Jul-12 16:31N 38°07' E 013°22'0 0.0
2018-Jul-12 16:01N 38°07' E 013°22'0 0.0
2018-Jul-12 15:31N 38°07' E 013°22'0 0.0
2018-Jul-12 14:58N 38°07' E 013°22'0 0.0
2018-Jul-12 14:31N 38°07' E 013°22'0 0.0
2018-Jul-12 14:01N 38°07' E 013°22'0 0.0
2018-Jul-12 13:31N 38°07' E 013°22'0 0.0
2018-Jul-12 13:01N 38°07' E 013°22'0 0.0
2018-Jul-12 12:28N 38°07' E 013°22'0 0.0
2018-Jul-12 11:58N 38°07' E 013°22'0 0.0
2018-Jul-12 11:28N 38°07' E 013°22'0 0.0
2018-Jul-12 10:58N 38°07' E 013°22'0 0.0
2018-Jul-12 10:31N 38°07' E 013°22'0 0.0
2018-Jul-12 10:01N 38°07' E 013°22'0 0.0
2018-Jul-12 09:28N 38°07' E 013°22'0 0.0
2018-Jul-12 08:58N 38°07' E 013°22'0 0.0
2018-Jul-12 08:31N 38°07' E 013°22'0 0.0
2018-Jul-12 08:01N 38°07' E 013°22'0 0.0
2018-Jul-12 07:31N 38°07' E 013°22'0 0.0
2018-Jul-12 06:58N 38°07' E 013°22'0 0.0
2018-Jul-12 06:31N 38°07' E 013°22'0 0.0
2018-Jul-12 06:01N 38°07' E 013°22'0 0.0
2018-Jul-12 05:28N 38°07' E 013°22'0 0.0
2018-Jul-12 05:01N 38°07' E 013°22'0 0.0
2018-Jul-12 04:13N 38°07' E 013°22'0 0.0
2018-Jul-12 04:01N 38°07' E 013°22'0 0.0
2018-Jul-12 03:31N 38°07' E 013°22'0 0.0
2018-Jul-12 03:01N 38°07' E 013°22'0 0.0
2018-Jul-12 02:25N 38°07' E 013°22'0 0.0
2018-Jul-12 02:01N 38°07' E 013°22'0 0.0
2018-Jul-12 01:19N 38°07' E 013°22'0 0.0
2018-Jul-12 01:01N 38°07' E 013°22'0 0.0
2018-Jul-12 00:31N 38°07' E 013°22'0 0.0
2018-Jul-12 00:01N 38°07' E 013°22'0 0.0
2018-Jul-11 23:31N 38°07' E 013°22'0 0.0
2018-Jul-11 22:55N 38°07' E 013°22'0 0.0
2018-Jul-11 22:13N 38°07' E 013°22'0 0.0
2018-Jul-11 22:01N 38°07' E 013°22'0 0.0
2018-Jul-11 21:25N 38°07' E 013°22'0 0.0
2018-Jul-11 20:58N 38°07' E 013°22'0 0.0
2018-Jul-11 20:31N 38°07' E 013°22'0 0.0
2018-Jul-11 18:34N 38°07' E 013°22'0 0.0
2018-Jul-11 18:28N 38°07' E 013°22'0 0.0
2018-Jul-11 17:04N 38°07' E 013°22'0 0.0
2018-Jul-11 16:04N 38°07' E 013°22'0 0.0
2018-Jul-11 15:58N 38°07' E 013°22'0 0.0
2018-Jul-11 15:31N 38°07' E 013°22'0 0.0
2018-Jul-11 14:58N 38°07' E 013°22'0 0.0
2018-Jul-11 14:31N 38°07' E 013°22'0 0.0
2018-Jul-11 13:58N 38°07' E 013°22'0 0.0
2018-Jul-11 13:31N 38°07' E 013°22'0 0.0
2018-Jul-11 13:01N 38°07' E 013°22'0 0.0
2018-Jul-11 12:28N 38°07' E 013°22'0 0.0
2018-Jul-11 12:01N 38°07' E 013°22'0 0.0
2018-Jul-11 11:31N 38°07' E 013°22'0 0.0
2018-Jul-11 11:01N 38°07' E 013°22'0 0.0
2018-Jul-11 10:31N 38°07' E 013°22'0 0.0
2018-Jul-11 09:58N 38°07' E 013°22'0 0.0
2018-Jul-11 09:22N 38°07' E 013°22'0 0.0
2018-Jul-11 09:01N 38°07' E 013°22'0 0.0
2018-Jul-11 08:31N 38°07' E 013°22'0 0.0
2018-Jul-11 07:04N 38°07' E 013°22'0 0.2
2018-Jul-11 07:01N 38°07' E 013°22'0 0.0
2018-Jul-11 06:28N 38°07' E 013°22'0 0.0
2018-Jul-11 06:01N 38°07' E 013°22'0 0.0
2018-Jul-11 05:28N 38°07' E 013°22'0 0.0
2018-Jul-11 04:58N 38°07' E 013°22'0 0.0
2018-Jul-11 04:28N 38°07' E 013°22'0 0.0
2018-Jul-11 03:58N 38°07' E 013°22'0 0.0
2018-Jul-11 03:28N 38°07' E 013°22'0 0.0
2018-Jul-11 02:58N 38°07' E 013°22'0 0.0
2018-Jul-11 02:28N 38°07' E 013°22'0 0.0
2018-Jul-11 01:58N 38°07' E 013°22'0 0.0
2018-Jul-11 01:31N 38°07' E 013°22'0 0.0
2018-Jul-11 00:58N 38°07' E 013°22'0 0.0
2018-Jul-11 00:31N 38°07' E 013°22'0 0.0
2018-Jul-10 23:58N 38°07' E 013°22'0 0.0
2018-Jul-10 23:31N 38°07' E 013°22'0 0.0
2018-Jul-10 23:01N 38°07' E 013°22'0 0.0
2018-Jul-10 22:31N 38°07' E 013°22'0 0.0
2018-Jul-10 21:58N 38°07' E 013°22'0 0.0
2018-Jul-10 20:40N 38°07' E 013°22'0 0.0
2018-Jul-10 20:31N 38°07' E 013°22'0 0.0
2018-Jul-10 17:49N 38°07' E 013°22'0 0.0
2018-Jul-10 17:25N 38°07' E 013°22'0 0.0
2018-Jul-10 17:01N 38°07' E 013°22'0 0.0
2018-Jul-10 16:31N 38°07' E 013°22'0 0.0
2018-Jul-10 16:01N 38°07' E 013°22'0 0.0
2018-Jul-10 15:31N 38°07' E 013°22'0 0.0
2018-Jul-10 15:01N 38°07' E 013°22'0 0.0
2018-Jul-10 14:31N 38°07' E 013°22'0 0.0
2018-Jul-10 13:58N 38°07' E 013°22'0 0.0
2018-Jul-10 13:28N 38°07' E 013°22'0 0.0
2018-Jul-10 12:34N 38°07' E 013°22'0 0.1
2018-Jul-10 12:31N 38°07' E 013°22'0 0.0
2018-Jul-10 12:01N 38°07' E 013°22'0 0.0
2018-Jul-10 11:28N 38°07' E 013°22'0 0.0
2018-Jul-10 11:01N 38°07' E 013°22'0 0.0
2018-Jul-10 10:31N 38°07' E 013°22'0 0.0
2018-Jul-10 10:01N 38°07' E 013°22'0 0.0
2018-Jul-10 09:31N 38°07' E 013°22'0 0.0
2018-Jul-10 09:01N 38°07' E 013°22'0 0.0
2018-Jul-10 08:28N 38°07' E 013°22'0 0.0
2018-Jul-10 08:01N 38°07' E 013°22'0 0.0
2018-Jul-10 07:31N 38°07' E 013°22'0 0.0
2018-Jul-10 07:01N 38°07' E 013°22'0 0.0
2018-Jul-10 06:28N 38°07' E 013°22'0 0.0
2018-Jul-10 05:58N 38°07' E 013°22'0 0.0
2018-Jul-10 05:28N 38°07' E 013°22'0 0.0
2018-Jul-10 05:01N 38°07' E 013°22'0 0.0
2018-Jul-10 04:28N 38°07' E 013°22'0 0.0
2018-Jul-10 04:01N 38°07' E 013°22'0 0.0
2018-Jul-10 03:31N 38°07' E 013°22'0 0.0
2018-Jul-10 03:01N 38°07' E 013°22'0 0.0
2018-Jul-10 02:31N 38°07' E 013°22'0 0.0
2018-Jul-10 02:01N 38°07' E 013°22'0 0.0
2018-Jul-10 01:31N 38°07' E 013°22'0 0.0
2018-Jul-10 01:01N 38°07' E 013°22'0 0.0
2018-Jul-10 00:28N 38°07' E 013°22'0 0.0
2018-Jul-10 00:01N 38°07' E 013°22'0 0.0
2018-Jul-09 23:28N 38°07' E 013°22'0 0.0
2018-Jul-09 23:01N 38°07' E 013°22'0 0.0
2018-Jul-09 22:28N 38°07' E 013°22'0 0.0
2018-Jul-09 21:58N 38°07' E 013°22'0 0.0
2018-Jul-09 21:28N 38°07' E 013°22'0 0.0
2018-Jul-09 20:58N 38°07' E 013°22'0 0.0
2018-Jul-09 20:31N 38°07' E 013°22'0 0.0
2018-Jul-09 20:01N 38°07' E 013°22'0 0.0
2018-Jul-09 19:31N 38°07' E 013°22'0 0.0
2018-Jul-09 19:01N 38°07' E 013°22'0 0.0
2018-Jul-09 18:28N 38°07' E 013°22'0 0.0
2018-Jul-09 17:58N 38°07' E 013°22'0 0.0
2018-Jul-09 17:31N 38°07' E 013°22'0 0.0
2018-Jul-09 16:58N 38°07' E 013°22'0 0.0
2018-Jul-09 16:31N 38°07' E 013°22'0 0.0
2018-Jul-09 15:55N 38°07' E 013°22'0 0.0
2018-Jul-09 15:31N 38°07' E 013°22'0 0.0
2018-Jul-09 15:01N 38°07' E 013°22'0 0.0
2018-Jul-09 14:31N 38°07' E 013°22'0 0.0
2018-Jul-09 14:01N 38°07' E 013°22'0 0.0
2018-Jul-09 13:28N 38°07' E 013°22'0 0.0
2018-Jul-09 13:01N 38°07' E 013°22'0 0.0
2018-Jul-09 12:31N 38°07' E 013°22'0 0.0
2018-Jul-09 11:58N 38°07' E 013°22'0 0.0
2018-Jul-09 11:31N 38°07' E 013°22'0 0.0
2018-Jul-09 10:58N 38°07' E 013°22'0 0.0
2018-Jul-09 10:28N 38°07' E 013°22'0 0.0
2018-Jul-09 10:01N 38°07' E 013°22'0 0.0
2018-Jul-09 09:31N 38°07' E 013°22'0 0.0
2018-Jul-09 09:01N 38°07' E 013°22'0 0.0
2018-Jul-09 08:31N 38°07' E 013°22'0 0.0
2018-Jul-09 08:01N 38°07' E 013°22'0 0.0
2018-Jul-09 07:28N 38°07' E 013°22'0 0.0
2018-Jul-09 07:01N 38°07' E 013°22'0 0.0
2018-Jul-09 06:31N 38°07' E 013°22'0 0.0
2018-Jul-09 05:58N 38°07' E 013°22'0 0.0
2018-Jul-09 05:28N 38°07' E 013°22'0 0.0
2018-Jul-09 04:55N 38°07' E 013°22'0 0.0
2018-Jul-09 04:31N 38°07' E 013°22'0 0.0
2018-Jul-09 03:52N 38°07' E 013°22'0 0.0
2018-Jul-09 03:28N 38°07' E 013°22'0 0.0
2018-Jul-09 02:04N 38°07' E 013°22'0 0.1
2018-Jul-09 02:01N 38°07' E 013°22'0 0.0
2018-Jul-09 01:31N 38°07' E 013°22'0 0.0
2018-Jul-09 00:52N 38°07' E 013°22'0 0.0
2018-Jul-09 00:31N 38°07' E 013°22'0 0.0
2018-Jul-09 00:01N 38°07' E 013°22'0 0.0
2018-Jul-08 23:31N 38°07' E 013°22'0 0.0
2018-Jul-08 22:55N 38°07' E 013°22'0 0.0
2018-Jul-08 22:28N 38°07' E 013°22'0 0.0
2018-Jul-08 21:52N 38°07' E 013°22'0 0.0
2018-Jul-08 21:31N 38°07' E 013°22'0 0.0
2018-Jul-08 21:01N 38°07' E 013°22'0 0.0
2018-Jul-08 20:31N 38°07' E 013°22'0 0.0
2018-Jul-08 20:01N 38°07' E 013°22'0 0.0
2018-Jul-08 19:31N 38°07' E 013°22'0 0.0
2018-Jul-08 18:58N 38°07' E 013°22'0 0.0
2018-Jul-08 18:22N 38°07' E 013°22'0 0.0
2018-Jul-08 17:55N 38°07' E 013°22'0 0.0
2018-Jul-08 17:25N 38°07' E 013°22'0 0.0
2018-Jul-08 17:01N 38°07' E 013°22'0 0.0
2018-Jul-08 16:28N 38°07' E 013°22'0 0.0
2018-Jul-08 16:01N 38°07' E 013°22'0 0.0
2018-Jul-08 15:31N 38°07' E 013°22'0 0.0
2018-Jul-08 15:01N 38°07' E 013°22'0 0.0
2018-Jul-08 14:31N 38°07' E 013°22'0 0.0
2018-Jul-08 13:55N 38°07' E 013°22'0 0.0
2018-Jul-08 13:31N 38°07' E 013°22'0 0.0
2018-Jul-08 13:01N 38°07' E 013°22'0 0.0
2018-Jul-08 12:28N 38°07' E 013°22'0 0.0
2018-Jul-08 12:01N 38°07' E 013°22'0 0.0
2018-Jul-08 11:28N 38°07' E 013°22'0 0.0
2018-Jul-08 11:01N 38°07' E 013°22'0 0.0
2018-Jul-08 10:28N 38°07' E 013°22'0 0.0
2018-Jul-08 09:58N 38°07' E 013°22'0 0.0
2018-Jul-08 09:28N 38°07' E 013°22'0 0.0
2018-Jul-08 08:58N 38°07' E 013°22'0 0.0
2018-Jul-08 08:28N 38°07' E 013°22'0 0.0
2018-Jul-08 08:01N 38°07' E 013°22'0 0.0
2018-Jul-08 07:28N 38°07' E 013°22'0 0.0
2018-Jul-08 07:01N 38°07' E 013°22'0 0.0
2018-Jul-08 06:31N 38°07' E 013°22'0 0.0
2018-Jul-08 05:58N 38°07' E 013°22'0 0.0
2018-Jul-08 05:31N 38°07' E 013°22'0 0.0
2018-Jul-08 04:58N 38°07' E 013°22'0 0.0
2018-Jul-08 04:28N 38°07' E 013°22'0 0.0
2018-Jul-08 03:58N 38°07' E 013°22'0 0.0
2018-Jul-08 03:31N 38°07' E 013°22'0 0.0
2018-Jul-08 02:58N 38°07' E 013°22'0 0.0
2018-Jul-08 02:28N 38°07' E 013°22'0 0.0
2018-Jul-08 02:01N 38°07' E 013°22'0 0.0
2018-Jul-08 01:28N 38°07' E 013°22'0 0.0
2018-Jul-08 00:58N 38°07' E 013°22'0 0.0
2018-Jul-08 00:31N 38°07' E 013°22'0 0.0
2018-Jul-08 00:01N 38°07' E 013°22'0 0.0
2018-Jul-07 23:31N 38°07' E 013°22'0 0.0
2018-Jul-07 22:43N 38°07' E 013°22'0 0.0
2018-Jul-07 22:28N 38°07' E 013°22'0 0.0
2018-Jul-07 21:58N 38°07' E 013°22'0 0.0
2018-Jul-07 21:25N 38°07' E 013°22'0 0.0
2018-Jul-07 20:49N 38°07' E 013°22'0 0.0
2018-Jul-07 20:25N 38°07' E 013°22'0 0.0
2018-Jul-07 19:58N 38°07' E 013°22'0 0.0
2018-Jul-07 19:28N 38°07' E 013°22'0 0.0
2018-Jul-07 19:01N 38°07' E 013°22'0 0.0
2018-Jul-07 17:58N 38°07' E 013°22'0 0.0
2018-Jul-07 17:31N 38°07' E 013°22'0 0.0
2018-Jul-07 17:01N 38°07' E 013°22'0 0.0
2018-Jul-07 16:31N 38°07' E 013°22'  

Dump ship's entire track history